ZSP weather

St. Paul Airport
St. Paul, Alberta, Canada

Public forecast

Using degrees Celsius for public forecast. Weather courtesy of forecast.io.

METAR (pilot weather report)

Closest report is CFB Cold Lake, 45.9 nm (85.0 km) ENE. Retrieved 2019/04/19 08:00 UTC (4 minutes ago):

CYOD 190800Z 00000KT 15SM BKN091 BKN130 09/01 A2963 RMK AC6AC1 VIRGA SLP045

TAF (pilot weather forecast)

Closest forecast is CFB Cold Lake, 45.9 nm (85.0 km) ENE. Retrieved 2019/04/19 06:35 UTC (1 hour ago):

TAF CYOD 190530Z 1906/2006 VRB03KT P6SM BKN080 OVC140 TEMPO 1906/1911 P6SM -SHRA BECMG 1909/1911 35012KT FM191100 35012KT P6SM SCT030 BKN080 BECMG 1913/1915 29012KT FM192000 29015G25KT P6SM FEW060 SCT180 BECMG 2000/2002 28008KT RMK NXT FCST BY 191200Z